Terminal Aerodrome Forecast
Issued by NWS

Home | Current Version | Previous Version | Text Only | Print | Product List | Glossary On
Versions: 1 2 3 4 5 6 7 8 9 10 11 12 13 14
445
FTUS44 KLZK 081720
TAFHOT
TAF
KHOT 081720Z 0818/0918 31015G30KT P6SM SCT050
     FM090000 33010G16KT P6SM SKC
     FM090500 30010KT P6SM SKC
     FM091500 31010G20KT P6SM SKC=

USA.gov is the U.S. government's official web portal to all federal, state and local government web resources and services.